This is the latest recevied weather packets stored in our database for station/object KD0RIH. If no packets are shown the sender has not sent any weather packets the latest 10 day(s).
| Time | Temp. | Humidity | Pressure | Rain* | Wind** | Luminosity | Snow |
|---|---|---|---|---|---|---|---|
| 1777883871 | 16.11° C | 60% | 1005.2 hPa | 0 mm | - | 0 W/m² | - |
| 1777883568 | 16.11° C | 59% | 1005.2 hPa | 0 mm | - | 0 W/m² | - |
| 1777883264 | 16.11° C | 59% | 1005.5 hPa | 0 mm | - | 0 W/m² | - |
| 1777882960 | 16.11° C | 60% | 1005.3 hPa | 0 mm | - | 0 W/m² | - |
| 1777882657 | 16.11° C | 61% | 1005.4 hPa | 0 mm | - | 0 W/m² | - |
| 1777882353 | 16.11° C | 59% | 1005.3 hPa | 0 mm | - | 0 W/m² | - |
| 1777882050 | 16.11° C | 61% | 1005.1 hPa | 0 mm | - | 0 W/m² | - |
| 1777881746 | 16.11° C | 62% | 1005.4 hPa | 0 mm | - | 0 W/m² | - |
| 1777881443 | 16.11° C | 60% | 1006.2 hPa | 0 mm | - | 0 W/m² | - |
| 1777881140 | 16.11° C | 60% | 1005.8 hPa | 0 mm | - | 0 W/m² | - |
| 1777880839 | 16.11° C | 60% | 1006.1 hPa | 0 mm | - | 0 W/m² | - |
| 1777880536 | 16.11° C | 63% | 1006.3 hPa | 0 mm | - | 0 W/m² | - |
| 1777880234 | 16.67° C | 60% | 1006.4 hPa | 0 mm | - | 0 W/m² | - |
| 1777879933 | 16.11° C | 60% | 1006.2 hPa | 0 mm | - | 0 W/m² | - |
| 1777879630 | 16.11° C | 60% | 1006.5 hPa | 0 mm | - | 0 W/m² | - |
| 1777879326 | 16.11° C | 58% | 1006.6 hPa | 0 mm | - | 0 W/m² | - |
| 1777879024 | 16.11° C | 59% | 1006.2 hPa | 0 mm | - | 0 W/m² | - |
| 1777878720 | 15.56° C | 61% | 1006.1 hPa | 0 mm | - | 0 W/m² | - |
| 1777878419 | 15.56° C | 63% | 1006.6 hPa | 0 mm | - | 0 W/m² | - |
| 1777878114 | 15.56° C | 63% | 1006.9 hPa | 0 mm | - | 0 W/m² | - |
| 1777877810 | 15.56° C | 62% | 1006.5 hPa | 0 mm | - | 0 W/m² | - |
| 1777877508 | 16.11° C | 61% | 1006.3 hPa | 0 mm | - | 0 W/m² | - |
| 1777877204 | 15.56° C | 62% | 1006.5 hPa | 0 mm | - | 0 W/m² | - |
| 1777876902 | 15° C | 67% | 1006.9 hPa | 0 mm | - | 0 W/m² | - |
| 1777876599 | 15° C | 67% | 1007.8 hPa | 0 mm | - | 0 W/m² | - |
* Rain latest hour (hover to see other rain measurements)
** Current wind speed in m/s (hover to see current wind gust speed)